Time;durP1;ratioP1;P1;durP2;ratioP2;P2;SDS_P1;SDS_P2;PMS_P1;PMS_P2;Temp;Humidity;BMP_temperature;BMP_pressure;BME280_temperature;BME280_humidity;BME280_pressure;Samples;Min_cycle;Max_cycle;Signal;HPM_P1;HPM_P2
2022/08/17 00:01:36;;;;;;;;;;;;;;;;;;4996499;28;19922;-63
2022/08/17 00:04:01;;;;;;;;;;;;;;;;;;5007173;28;19932;-62
2022/08/17 00:06:26;;;;;;;;;;;;;;;;;;5010217;28;19955;-62
2022/08/17 00:08:52;;;;;;;;;;;;;;;;;;5008614;28;19914;-62
2022/08/17 00:11:17;;;;;;;;;;;;;;;;;;4994069;28;19910;-62
2022/08/17 00:13:42;;;;;;;;;;;;;;;;;;4994839;28;19917;-62
2022/08/17 00:16:07;;;;;;;;;;;;;;;;;;4996143;28;19914;-63
2022/08/17 00:18:32;;;;;;;;;;;;;;;;;;5001134;28;19922;-63
2022/08/17 00:20:57;;;;;;;;;;;;;;;;;;4992678;28;19913;-63
2022/08/17 00:23:23;;;;;;;;;;;;;;;;;;4992348;28;19989;-63
2022/08/17 00:25:48;;;;;;;;;;;;;;;;;;4994371;28;20370;-63
2022/08/17 00:28:16;;;;;;;;;;;;;;;;;;4994568;28;20425;-63
2022/08/17 00:30:41;;;;;;;;;;;;;;;;;;4980726;28;19918;-63
2022/08/17 00:33:06;;;;;;;;;;;;;;;;;;4991005;28;19914;-62
2022/08/17 00:35:31;;;;;;;;;;;;;;;;;;4992728;28;19922;-63
2022/08/17 00:37:57;;;;;;;;;;;;;;;;;;4993693;28;19935;-63
2022/08/17 00:40:22;;;;;;;;;;;;;;;;;;4992689;28;20365;-63
2022/08/17 00:42:47;;;;;;;;;;;;;;;;;;4994396;28;20021;-63
2022/08/17 00:45:12;;;;;;;;;;;;;;;;;;4995938;28;19910;-62
2022/08/17 00:47:37;;;;;;;;;;;;;;;;;;4994192;28;19921;-63
2022/08/17 00:50:02;;;;;;;;;;;;;;;;;;4992523;28;19988;-63
2022/08/17 00:52:27;;;;;;;;;;;;;;;;;;4990566;28;19914;-63
2022/08/17 00:54:53;;;;;;;;;;;;;;;;;;4995326;28;19937;-63
2022/08/17 00:57:18;;;;;;;;;;;;;;;;;;4980339;28;19957;-62
2022/08/17 00:59:43;;;;;;;;;;;;;;;;;;4993953;28;19914;-62
2022/08/17 01:02:08;;;;;;;;;;;;;;;;;;4989186;28;20298;-63
2022/08/17 01:04:33;;;;;;;;;;;;;;;;;;4999182;28;20290;-62
2022/08/17 01:06:59;;;;;;;;;;;;;;;;;;4988915;28;19910;-63
2022/08/17 01:09:24;;;;;;;;;;;;;;;;;;4986921;28;19914;-63
2022/08/17 01:11:52;;;;;;;;;;;;;;;;;;4993167;28;19914;-63
2022/08/17 01:14:19;;;;;;;;;;;;;;;;;;4992056;28;19913;-63
2022/08/17 01:16:44;;;;;;;;;;;;;;;;;;5009788;28;19922;-63
2022/08/17 01:19:10;;;;;;;;;;;;;;;;;;5013144;28;19914;-63
2022/08/17 01:21:35;;;;;;;;;;;;;;;;;;5007508;28;20403;-63
2022/08/17 01:24:00;;;;;;;;;;;;;;;;;;5008095;28;19924;-63
2022/08/17 01:26:25;;;;;;;;;;;;;;;;;;5012045;28;19909;-63
2022/08/17 01:28:50;;;;;;;;;;;;;;;;;;5012365;28;20402;-63
2022/08/17 01:31:15;;;;;;;;;;;;;;;;;;5011207;28;19913;-63
2022/08/17 01:33:40;;;;;;;;;;;;;;;;;;5011175;28;19972;-63
2022/08/17 01:36:06;;;;;;;;;;;;;;;;;;5011713;28;19920;-62
2022/08/17 01:38:31;;;;;;;;;;;;;;;;;;5011561;28;19917;-63
2022/08/17 01:40:56;;;;;;;;;;;;;;;;;;5011308;28;20282;-63
2022/08/17 01:43:21;;;;;;;;;;;;;;;;;;5012284;28;19929;-62
2022/08/17 01:45:47;;;;;;;;;;;;;;;;;;5004975;28;19913;-63
2022/08/17 01:48:12;;;;;;;;;;;;;;;;;;5010366;28;19914;-63
2022/08/17 01:50:37;;;;;;;;;;;;;;;;;;5009329;28;19965;-63
2022/08/17 01:53:03;;;;;;;;;;;;;;;;;;5008540;28;19913;-63
2022/08/17 01:55:28;;;;;;;;;;;;;;;;;;5012885;28;19964;-62
2022/08/17 01:57:53;;;;;;;;;;;;;;;;;;5025343;28;19909;-63
2022/08/17 02:00:18;;;;;;;;;;;;;;;;;;5018524;28;20420;-63
2022/08/17 02:02:44;;;;;;;;;;;;;;;;;;5009507;28;19917;-63
2022/08/17 02:05:09;;;;;;;;;;;;;;;;;;5022601;28;19925;-63
2022/08/17 02:07:35;;;;;;;;;;;;;;;;;;5004210;28;19913;-63
2022/08/17 02:10:00;;;;;;;;;;;;;;;;;;5008091;28;19920;-63
2022/08/17 02:12:25;;;;;;;;;;;;;;;;;;5016684;28;19917;-63
2022/08/17 02:14:51;;;;;;;;;;;;;;;;;;5011236;28;19929;-63
2022/08/17 02:17:16;;;;;;;;;;;;;;;;;;5005492;28;19921;-63
2022/08/17 02:19:41;;;;;;;;;;;;;;;;;;5011242;28;19921;-64
2022/08/17 02:22:06;;;;;;;;;;;;;;;;;;5008760;28;20412;-63
2022/08/17 02:24:31;;;;;;;;;;;;;;;;;;5002969;28;19921;-63
2022/08/17 02:26:56;;;;;;;;;;;;;;;;;;5018254;28;19913;-62
2022/08/17 02:29:21;;;;;;;;;;;;;;;;;;5017975;28;19964;-63
2022/08/17 02:31:47;;;;;;;;;;;;;;;;;;5012424;28;19909;-63
2022/08/17 02:34:12;;;;;;;;;;;;;;;;;;5010900;28;20008;-63
2022/08/17 02:36:37;;;;;;;;;;;;;;;;;;5010754;28;19918;-63
2022/08/17 02:39:03;;;;;;;;;;;;;;;;;;4991757;28;19914;-63
2022/08/17 02:41:28;;;;;;;;;;;;;;;;;;5009393;28;20423;-62
2022/08/17 02:43:53;;;;;;;;;;;;;;;;;;4992749;28;20388;-63
2022/08/17 02:46:18;;;;;;;;;;;;;;;;;;5009317;28;19920;-63
2022/08/17 02:48:43;;;;;;;;;;;;;;;;;;4998359;28;19965;-63
2022/08/17 02:51:08;;;;;;;;;;;;;;;;;;5007575;28;19910;-63
2022/08/17 02:53:33;;;;;;;;;;;;;;;;;;5008756;28;20349;-62
2022/08/17 02:55:59;;;;;;;;;;;;;;;;;;5007929;28;19959;-63
2022/08/17 02:58:24;;;;;;;;;;;;;;;;;;5014543;28;20365;-62
2022/08/17 03:00:49;;;;;;;;;;;;;;;;;;5014721;28;20008;-62
2022/08/17 03:03:17;;;;;;;;;;;;;;;;;;5015635;28;20396;-62
2022/08/17 03:05:43;;;;;;;;;;;;;;;;;;5014240;28;19913;-63
2022/08/17 03:08:08;;;;;;;;;;;;;;;;;;5006057;28;19968;-62
2022/08/17 03:10:34;;;;;;;;;;;;;;;;;;5014717;28;19973;-62
2022/08/17 03:12:59;;;;;;;;;;;;;;;;;;4997816;28;19914;-63
2022/08/17 03:15:24;;;;;;;;;;;;;;;;;;4999037;28;20048;-63
2022/08/17 03:17:51;;;;;;;;;;;;;;;;;;5014461;28;20337;-62
2022/08/17 03:20:16;;;;;;;;;;;;;;;;;;5015251;28;19914;-62
2022/08/17 03:22:41;;;;;;;;;;;;;;;;;;5009958;28;19917;-62
2022/08/17 03:25:06;;;;;;;;;;;;;;;;;;5013862;28;20381;-62
2022/08/17 03:27:31;;;;;;;;;;;;;;;;;;5006078;28;19920;-63
2022/08/17 03:29:56;;;;;;;;;;;;;;;;;;5005957;28;19914;-62
2022/08/17 03:32:22;;;;;;;;;;;;;;;;;;5012145;28;19922;-62
2022/08/17 03:34:47;;;;;;;;;;;;;;;;;;4979141;28;19910;-62
2022/08/17 03:37:12;;;;;;;;;;;;;;;;;;5002415;28;19920;-62
2022/08/17 03:39:37;;;;;;;;;;;;;;;;;;5022975;28;19917;-61
2022/08/17 03:42:02;;;;;;;;;;;;;;;;;;5014181;28;19910;-62
2022/08/17 03:44:27;;;;;;;;;;;;;;;;;;5013573;28;20278;-62
2022/08/17 03:57:48;;;;;;;;;;;;;;;;;;5002669;28;19968;-62
2022/08/17 04:00:14;;;;;;;;;;;;;;;;;;5013506;28;20378;-62
2022/08/17 04:02:39;;;;;;;;;;;;;;;;;;5014817;28;20390;-62
2022/08/17 04:05:04;;;;;;;;;;;;;;;;;;5014461;28;19910;-62
2022/08/17 04:07:29;;;;;;;;;;;;;;;;;;5010230;28;20526;-63
2022/08/17 04:09:54;;;;;;;;;;;;;;;;;;5013471;28;19913;-63
2022/08/17 04:12:19;;;;;;;;;;;;;;;;;;5015368;28;19921;-63
2022/08/17 04:14:45;;;;;;;;;;;;;;;;;;5013479;28;19913;-63
2022/08/17 04:17:10;;;;;;;;;;;;;;;;;;5014080;28;19922;-62
2022/08/17 04:19:35;;;;;;;;;;;;;;;;;;5013250;28;19914;-62
2022/08/17 04:22:00;;;;;;;;;;;;;;;;;;5010351;28;20396;-62
2022/08/17 04:24:26;;;;;;;;;;;;;;;;;;4995978;28;20406;-62
2022/08/17 04:26:51;;;;;;;;;;;;;;;;;;4997021;28;19917;-62
2022/08/17 04:29:16;;;;;;;;;;;;;;;;;;5005414;28;20030;-62
2022/08/17 04:31:41;;;;;;;;;;;;;;;;;;4997008;28;19928;-62
2022/08/17 04:34:07;;;;;;;;;;;;;;;;;;4998755;28;20299;-63
2022/08/17 04:36:32;;;;;;;;;;;;;;;;;;4999477;28;20308;-63
2022/08/17 04:38:57;;;;;;;;;;;;;;;;;;4997739;28;19910;-63
2022/08/17 04:44:06;;;;;;;;;;;;;;;;;;5012108;28;19925;-63
2022/08/17 04:46:31;;;;;;;;;;;;;;;;;;5012794;28;19917;-63
2022/08/17 04:48:56;;;;;;;;;;;;;;;;;;5005742;28;19917;-63
2022/08/17 04:51:22;;;;;;;;;;;;;;;;;;5006031;28;20041;-63
2022/08/17 04:53:47;;;;;;;;;;;;;;;;;;5003535;28;19913;-63
2022/08/17 04:56:13;;;;;;;;;;;;;;;;;;5010423;28;19917;-63
2022/08/17 04:58:39;;;;;;;;;;;;;;;;;;5000458;28;19914;-64
2022/08/17 05:01:04;;;;;;;;;;;;;;;;;;5000315;28;20365;-62
2022/08/17 05:03:29;;;;;;;;;;;;;;;;;;5012488;28;20429;-63
2022/08/17 05:05:54;;;;;;;;;;;;;;;;;;5009058;28;19960;-62
2022/08/17 05:08:20;;;;;;;;;;;;;;;;;;5010282;28;19968;-63
2022/08/17 05:10:45;;;;;;;;;;;;;;;;;;4996540;28;19959;-63
2022/08/17 05:13:10;;;;;;;;;;;;;;;;;;5002063;28;19914;-63
2022/08/17 05:15:35;;;;;;;;;;;;;;;;;;5011767;28;19913;-62
2022/08/17 05:18:01;;;;;;;;;;;;;;;;;;5012011;28;19925;-62
2022/08/17 05:20:26;;;;;;;;;;;;;;;;;;5012731;28;20003;-63
2022/08/17 05:22:51;;;;;;;;;;;;;;;;;;4991831;28;19924;-63
2022/08/17 05:25:16;;;;;;;;;;;;;;;;;;5020398;28;19913;-63
2022/08/17 05:27:41;;;;;;;;;;;;;;;;;;5006388;28;19922;-62
2022/08/17 05:30:06;;;;;;;;;;;;;;;;;;5007256;28;19935;-62
2022/08/17 05:32:31;;;;;;;;;;;;;;;;;;5005014;28;19992;-63
2022/08/17 05:34:58;;;;;;;;;;;;;;;;;;5009109;28;19940;-63
2022/08/17 05:37:24;;;;;;;;;;;;;;;;;;5007913;28;19965;-62
2022/08/17 05:39:49;;;;;;;;;;;;;;;;;;5008649;28;19909;-63
2022/08/17 05:42:14;;;;;;;;;;;;;;;;;;5030264;28;19920;-62
2022/08/17 05:44:39;;;;;;;;;;;;;;;;;;5012074;28;19925;-63
2022/08/17 05:47:04;;;;;;;;;;;;;;;;;;5010999;28;19914;-63
2022/08/17 05:49:29;;;;;;;;;;;;;;;;;;5010883;28;20105;-63
2022/08/17 05:51:54;;;;;;;;;;;;;;;;;;5006759;28;19921;-63
2022/08/17 05:54:20;;;;;;;;;;;;;;;;;;4985427;28;19906;-62
2022/08/17 05:56:45;;;;;;;;;;;;;;;;;;5004267;28;19913;-62
2022/08/17 05:59:10;;;;;;;;;;;;;;;;;;5010616;28;19976;-63
2022/08/17 06:01:35;;;;;;;;;;;;;;;;;;5009769;28;19913;-62
2022/08/17 06:04:00;;;;;;;;;;;;;;;;;;5011857;28;19940;-62
2022/08/17 06:06:25;;;;;;;;;;;;;;;;;;5008268;28;19918;-62
2022/08/17 06:08:50;;;;;;;;;;;;;;;;;;5007216;28;19917;-63
2022/08/17 06:11:16;;;;;;;;;;;;;;;;;;5010168;28;20015;-62
2022/08/17 06:13:41;;;;;;;;;;;;;;;;;;5010371;28;20011;-62
2022/08/17 06:16:06;;;;;;;;;;;;;;;;;;5003280;28;19968;-63
2022/08/17 06:18:31;;;;;;;;;;;;;;;;;;4999418;28;19921;-63
2022/08/17 06:20:56;;;;;;;;;;;;;;;;;;5002273;28;19913;-64
2022/08/17 06:23:21;;;;;;;;;;;;;;;;;;5005219;28;20320;-62
2022/08/17 06:25:47;;;;;;;;;;;;;;;;;;5007005;28;19920;-62
2022/08/17 06:28:13;;;;;;;;;;;;;;;;;;5007399;28;19928;-62
2022/08/17 06:30:38;;;;;;;;;;;;;;;;;;5007970;28;19961;-63
2022/08/17 06:33:04;;;;;;;;;;;;;;;;;;5017815;28;19944;-62
2022/08/17 06:35:29;;;;;;;;;;;;;;;;;;5014503;28;19984;-62
2022/08/17 06:37:54;;;;;;;;;;;;;;;;;;4988327;28;20314;-63
2022/08/17 06:40:20;;;;;;;;;;;;;;;;;;5010685;28;19919;-62
2022/08/17 06:42:46;;;;;;;;;;;;;;;;;;5012733;28;19955;-62
2022/08/17 06:45:12;;;;;;;;;;;;;;;;;;5016103;28;20030;-63
2022/08/17 06:47:37;;;;;;;;;;;;;;;;;;5006125;28;20373;-65
2022/08/17 06:50:02;;;;;;;;;;;;;;;;;;5012461;28;19971;-63
2022/08/17 06:52:27;;;;;;;;;;;;;;;;;;4994946;28;19953;-63
2022/08/17 06:54:52;;;;;;;;;;;;;;;;;;5001053;28;19913;-64
2022/08/17 06:57:18;;;;;;;;;;;;;;;;;;5010549;28;19918;-60
2022/08/17 06:59:43;;;;;;;;;;;;;;;;;;4999162;28;19914;-63
2022/08/17 07:02:08;;;;;;;;;;;;;;;;;;4997953;28;19921;-62
2022/08/17 07:04:33;;;;;;;;;;;;;;;;;;4994483;28;20286;-63
2022/08/17 07:06:58;;;;;;;;;;;;;;;;;;4996200;28;20255;-62
2022/08/17 07:09:23;;;;;;;;;;;;;;;;;;4994316;28;20310;-63
2022/08/17 07:11:49;;;;;;;;;;;;;;;;;;5009131;28;19924;-63
2022/08/17 07:14:14;;;;;;;;;;;;;;;;;;5007241;28;19921;-62
2022/08/17 07:16:39;;;;;;;;;;;;;;;;;;4989906;28;19921;-63
2022/08/17 07:19:06;;;;;;;;;;;;;;;;;;4996471;28;20421;-63
2022/08/17 07:21:31;;;;;;;;;;;;;;;;;;5001553;28;19928;-62
2022/08/17 07:23:59;;;;;;;;;;;;;;;;;;4996136;28;19918;-66
2022/08/17 07:26:24;;;;;;;;;;;;;;;;;;5001252;28;20481;-63
2022/08/17 07:28:50;;;;;;;;;;;;;;;;;;4985542;28;19945;-61
2022/08/17 07:31:16;;;;;;;;;;;;;;;;;;4996884;28;19928;-68
2022/08/17 07:33:41;;;;;;;;;;;;;;;;;;5004533;28;19917;-70
2022/08/17 07:36:06;;;;;;;;;;;;;;;;;;4999796;28;19917;-61
2022/08/17 07:38:31;;;;;;;;;;;;;;;;;;4986738;28;19931;-62
2022/08/17 07:41:00;;;;;;;;;;;;;;;;;;4985945;28;19914;-62
2022/08/17 07:43:25;;;;;;;;;;;;;;;;;;5005667;28;19957;-61
2022/08/17 07:48:34;;;;;;;;;;;;;;;;;;4993978;28;19924;-69
2022/08/17 07:51:00;;;;;;;;;;;;;;;;;;5001128;28;19926;-68
2022/08/17 07:53:25;;;;;;;;;;;;;;;;;;4971397;28;19913;-69
2022/08/17 07:55:51;;;;;;;;;;;;;;;;;;5000100;28;19913;-68
2022/08/17 07:58:16;;;;;;;;;;;;;;;;;;5005785;28;19921;-65
2022/08/17 08:00:41;;;;;;;;;;;;;;;;;;5001239;28;19917;-71
2022/08/17 08:03:06;;;;;;;;;;;;;;;;;;5004938;28;19964;-71
2022/08/17 08:05:31;;;;;;;;;;;;;;;;;;5012332;28;19972;-69
2022/08/17 08:07:56;;;;;;;;;;;;;;;;;;5008417;28;19917;-69
2022/08/17 08:10:21;;;;;;;;;;;;;;;;;;5004620;28;19921;-69
2022/08/17 08:12:46;;;;;;;;;;;;;;;;;;5011045;28;19936;-72
2022/08/17 08:15:12;;;;;;;;;;;;;;;;;;5010772;28;20342;-66
2022/08/17 08:17:37;;;;;;;;;;;;;;;;;;4998621;28;20298;-68
2022/08/17 08:20:02;;;;;;;;;;;;;;;;;;4993236;28;19921;-69
2022/08/17 08:22:29;;;;;;;;;;;;;;;;;;4986466;28;20286;-71
2022/08/17 08:24:54;;;;;;;;;;;;;;;;;;4985383;28;19949;-64
2022/08/17 08:27:19;;;;;;;;;;;;;;;;;;4993299;28;19918;-66
2022/08/17 08:29:44;;;;;;;;;;;;;;;;;;4991510;28;19916;-67
2022/08/17 08:32:09;;;;;;;;;;;;;;;;;;4999128;28;19924;-69
2022/08/17 08:34:34;;;;;;;;;;;;;;;;;;4995753;28;20012;-67
2022/08/17 08:37:00;;;;;;;;;;;;;;;;;;4990492;28;19924;-68
2022/08/17 08:39:25;;;;;;;;;;;;;;;;;;4991975;28;20358;-68
2022/08/17 08:41:50;;;;;;;;;;;;;;;;;;4995404;28;20000;-69
2022/08/17 08:44:15;;;;;;;;;;;;;;;;;;4995951;28;19918;-67
2022/08/17 08:46:40;;;;;;;;;;;;;;;;;;4982918;28;19921;-66
2022/08/17 08:49:06;;;;;;;;;;;;;;;;;;4986484;28;19910;-67
2022/08/17 08:51:32;;;;;;;;;;;;;;;;;;4986150;28;20315;-67
2022/08/17 08:53:57;;;;;;;;;;;;;;;;;;4990678;28;20366;-68
2022/08/17 08:56:22;;;;;;;;;;;;;;;;;;4990812;28;19929;-67
2022/08/17 08:58:49;;;;;;;;;;;;;;;;;;4974464;28;19910;-68
2022/08/17 09:01:14;;;;;;;;;;;;;;;;;;4991441;28;19920;-66
2022/08/17 09:03:39;;;;;;;;;;;;;;;;;;4990504;28;19917;-68
2022/08/17 09:06:05;;;;;;;;;;;;;;;;;;4995725;28;19944;-69
2022/08/17 09:08:31;;;;;;;;;;;;;;;;;;4992522;28;19987;-66
2022/08/17 09:10:56;;;;;;;;;;;;;;;;;;4990527;28;19981;-66
2022/08/17 09:13:21;;;;;;;;;;;;;;;;;;4989371;28;19961;-67
2022/08/17 09:15:46;;;;;;;;;;;;;;;;;;4993305;28;19967;-67
2022/08/17 09:18:11;;;;;;;;;;;;;;;;;;5003347;28;19980;-69
2022/08/17 09:20:37;;;;;;;;;;;;;;;;;;5011506;28;20373;-66
2022/08/17 09:23:02;;;;;;;;;;;;;;;;;;4988833;28;19922;-69
2022/08/17 09:25:27;;;;;;;;;;;;;;;;;;5001388;28;20004;-66
2022/08/17 09:27:52;;;;;;;;;;;;;;;;;;5003606;28;19924;-69
2022/08/17 09:30:18;;;;;;;;;;;;;;;;;;5010008;28;19964;-67
2022/08/17 09:32:43;;;;;;;;;;;;;;;;;;5003486;28;19921;-66
2022/08/17 09:35:09;;;;;;;;;;;;;;;;;;5007179;28;19918;-68
2022/08/17 09:37:34;;;;;;;;;;;;;;;;;;4996134;28;19910;-67
2022/08/17 09:40:00;;;;;;;;;;;;;;;;;;4996643;28;19922;-65
2022/08/17 09:42:26;;;;;;;;;;;;;;;;;;4991651;28;19922;-67
2022/08/17 09:44:51;;;;;;;;;;;;;;;;;;4999635;28;19980;-64
2022/08/17 09:47:16;;;;;;;;;;;;;;;;;;5001387;28;19921;-67
2022/08/17 09:49:41;;;;;;;;;;;;;;;;;;4997684;28;19918;-67
2022/08/17 09:52:07;;;;;;;;;;;;;;;;;;4964541;28;19914;-66
2022/08/17 09:54:32;;;;;;;;;;;;;;;;;;5000098;28;20017;-66
2022/08/17 09:56:57;;;;;;;;;;;;;;;;;;5002016;28;20599;-68
2022/08/17 09:59:22;;;;;;;;;;;;;;;;;;4998581;28;19914;-66
2022/08/17 10:01:49;;;;;;;;;;;;;;;;;;5000502;28;20424;-66
2022/08/17 10:04:14;;;;;;;;;;;;;;;;;;5002289;28;19923;-68
2022/08/17 10:06:39;;;;;;;;;;;;;;;;;;5012997;28;19996;-68
2022/08/17 10:09:07;;;;;;;;;;;;;;;;;;5010346;28;20281;-68
2022/08/17 10:14:16;;;;;;;;;;;;;;;;;;4987513;28;20421;-69
2022/08/17 10:16:41;;;;;;;;;;;;;;;;;;4988312;28;19922;-69
2022/08/17 10:19:06;;;;;;;;;;;;;;;;;;5008329;28;20004;-68
2022/08/17 10:27:19;;;;;;;;;;;;;;;;;;4915032;29;20405;-69
2022/08/17 10:29:44;;;;;;;;;;;;;;;;;;4914671;29;19915;-69
2022/08/17 10:32:10;;;;;;;;;;;;;;;;;;4915523;29;19975;-69
2022/08/17 10:34:35;;;;;;;;;;;;;;;;;;4917261;29;19915;-68
2022/08/17 10:37:01;;;;;;;;;;;;;;;;;;4921399;29;19915;-68
2022/08/17 10:39:26;;;;;;;;;;;;;;;;;;4919614;29;20372;-68
2022/08/17 10:41:51;;;;;;;;;;;;;;;;;;4923860;29;20358;-69
2022/08/17 10:44:17;;;;;;;;;;;;;;;;;;4927115;29;19982;-68
2022/08/17 10:46:42;;;;;;;;;;;;;;;;;;4916540;29;20269;-68
2022/08/17 10:49:09;;;;;;;;;;;;;;;;;;4927968;29;19914;-70
2022/08/17 10:51:36;;;;;;;;;;;;;;;;;;4919742;29;19970;-68
2022/08/17 10:54:01;;;;;;;;;;;;;;;;;;4929120;29;19919;-68
2022/08/17 10:56:26;;;;;;;;;;;;;;;;;;5004498;28;19914;-68
2022/08/17 10:58:54;;;;;;;;;;;;;;;;;;5012719;28;20362;-68
2022/08/17 11:01:20;;;;;;;;;;;;;;;;;;5010180;28;19913;-68
2022/08/17 11:03:45;;;;;;;;;;;;;;;;;;5013090;28;19924;-68
2022/08/17 11:06:11;;;;;;;;;;;;;;;;;;5011810;28;19913;-70
2022/08/17 11:08:37;;;;;;;;;;;;;;;;;;5008796;28;20290;-68
2022/08/17 11:11:02;;;;;;;;;;;;;;;;;;5011778;28;19922;-69
2022/08/17 11:13:27;;;;;;;;;;;;;;;;;;5013396;28;19914;-68
2022/08/17 11:15:52;;;;;;;;;;;;;;;;;;5007808;28;19996;-67
2022/08/17 11:18:17;;;;;;;;;;;;;;;;;;4996569;28;20029;-69
2022/08/17 11:20:42;;;;;;;;;;;;;;;;;;4988963;28;19914;-69
2022/08/17 11:23:08;;;;;;;;;;;;;;;;;;4987137;28;19918;-69
2022/08/17 11:25:33;;;;;;;;;;;;;;;;;;4993046;28;20340;-69
2022/08/17 11:27:58;;;;;;;;;;;;;;;;;;4990673;28;19921;-69
2022/08/17 11:30:23;;;;;;;;;;;;;;;;;;5008791;28;19925;-69
2022/08/17 11:32:49;;;;;;;;;;;;;;;;;;4986971;28;19936;-69
2022/08/17 11:35:14;;;;;;;;;;;;;;;;;;4992738;28;20012;-69
2022/08/17 11:37:39;;;;;;;;;;;;;;;;;;4989832;28;20388;-70
2022/08/17 11:40:05;;;;;;;;;;;;;;;;;;4991797;28;19913;-68
2022/08/17 11:42:30;;;;;;;;;;;;;;;;;;5008236;28;19919;-69
2022/08/17 11:44:55;;;;;;;;;;;;;;;;;;5003242;28;20259;-69
2022/08/17 11:52:48;;;;;;;;;;;;;;;;;;4985921;28;20417;-69
2022/08/17 11:55:14;;;;;;;;;;;;;;;;;;4997812;28;19918;-69
2022/08/17 11:57:39;;;;;;;;;;;;;;;;;;4987532;28;19949;-69
2022/08/17 12:00:10;;;;;;;;;;;;;;;;;;4982823;28;19918;-69
2022/08/17 12:02:37;;;;;;;;;;;;;;;;;;4988837;28;19929;-69
2022/08/17 12:05:02;;;;;;;;;;;;;;;;;;5008344;28;19921;-70
2022/08/17 12:07:28;;;;;;;;;;;;;;;;;;5002560;28;19914;-69
2022/08/17 12:09:56;;;;;;;;;;;;;;;;;;4992904;28;20366;-70
2022/08/17 12:12:21;;;;;;;;;;;;;;;;;;5006100;28;19913;-68
2022/08/17 12:14:46;;;;;;;;;;;;;;;;;;4989930;28;19918;-69
2022/08/17 12:17:12;;;;;;;;;;;;;;;;;;4983748;28;20453;-69
2022/08/17 12:19:38;;;;;;;;;;;;;;;;;;4991684;28;19972;-69
2022/08/17 12:22:03;;;;;;;;;;;;;;;;;;5006553;28;19918;-69
2022/08/17 12:24:30;;;;;;;;;;;;;;;;;;5010753;28;19917;-69
2022/08/17 12:26:55;;;;;;;;;;;;;;;;;;5003918;28;19929;-69
2022/08/17 12:29:20;;;;;;;;;;;;;;;;;;5004252;28;20515;-69
2022/08/17 12:31:46;;;;;;;;;;;;;;;;;;5004136;28;19917;-69
2022/08/17 12:34:11;;;;;;;;;;;;;;;;;;4992786;28;19980;-69
2022/08/17 12:36:36;;;;;;;;;;;;;;;;;;4986123;28;20260;-69
2022/08/17 12:39:04;;;;;;;;;;;;;;;;;;4981192;28;19917;-69
2022/08/17 12:41:29;;;;;;;;;;;;;;;;;;4993401;28;19925;-69
2022/08/17 12:43:54;;;;;;;;;;;;;;;;;;4998251;28;20388;-69
2022/08/17 12:46:19;;;;;;;;;;;;;;;;;;5012113;28;20334;-71
2022/08/17 12:48:44;;;;;;;;;;;;;;;;;;4993276;28;20370;-68
2022/08/17 12:51:10;;;;;;;;;;;;;;;;;;5007955;28;20204;-69
2022/08/17 12:53:35;;;;;;;;;;;;;;;;;;5007003;28;19932;-69
2022/08/17 12:56:00;;;;;;;;;;;;;;;;;;4997714;28;19913;-68
2022/08/17 12:58:26;;;;;;;;;;;;;;;;;;5006650;28;19920;-69
2022/08/17 13:00:51;;;;;;;;;;;;;;;;;;5009426;28;19914;-69
2022/08/17 13:03:18;;;;;;;;;;;;;;;;;;5012294;28;19917;-69
2022/08/17 13:05:47;;;;;;;;;;;;;;;;;;5011582;28;19921;-69
2022/08/17 13:08:12;;;;;;;;;;;;;;;;;;5008993;28;19971;-70
2022/08/17 13:10:37;;;;;;;;;;;;;;;;;;5005348;28;19914;-69
2022/08/17 13:13:04;;;;;;;;;;;;;;;;;;5010844;28;19924;-68
2022/08/17 13:15:29;;;;;;;;;;;;;;;;;;5018897;28;19940;-70
2022/08/17 13:17:55;;;;;;;;;;;;;;;;;;5007912;28;19922;-69
2022/08/17 13:20:20;;;;;;;;;;;;;;;;;;5010170;28;19938;-69
2022/08/17 13:22:45;;;;;;;;;;;;;;;;;;4985906;28;19921;-68
2022/08/17 13:25:11;;;;;;;;;;;;;;;;;;5011495;28;19917;-69
2022/08/17 13:27:37;;;;;;;;;;;;;;;;;;5007120;28;20008;-69
2022/08/17 13:30:02;;;;;;;;;;;;;;;;;;5011067;28;19944;-69
2022/08/17 13:32:27;;;;;;;;;;;;;;;;;;5001555;28;19914;-70
2022/08/17 13:34:52;;;;;;;;;;;;;;;;;;5004743;28;19917;-69
2022/08/17 13:37:17;;;;;;;;;;;;;;;;;;5007952;28;20705;-69
2022/08/17 13:39:42;;;;;;;;;;;;;;;;;;5009611;28;19917;-69
2022/08/17 13:42:08;;;;;;;;;;;;;;;;;;5000502;28;19913;-69
2022/08/17 13:44:33;;;;;;;;;;;;;;;;;;5014911;28;19925;-70
2022/08/17 13:46:58;;;;;;;;;;;;;;;;;;5011586;28;19918;-70
2022/08/17 13:49:23;;;;;;;;;;;;;;;;;;5007439;28;20274;-69
2022/08/17 13:51:49;;;;;;;;;;;;;;;;;;5004399;28;19913;-68
2022/08/17 13:54:14;;;;;;;;;;;;;;;;;;5009894;28;20331;-69
2022/08/17 13:56:39;;;;;;;;;;;;;;;;;;5009315;28;20004;-68
2022/08/17 13:59:04;;;;;;;;;;;;;;;;;;5003272;28;19944;-68
2022/08/17 14:01:29;;;;;;;;;;;;;;;;;;5006645;28;19940;-69
2022/08/17 14:03:54;;;;;;;;;;;;;;;;;;5010385;28;20012;-69
2022/08/17 14:06:20;;;;;;;;;;;;;;;;;;5010114;28;19939;-69
2022/08/17 14:08:45;;;;;;;;;;;;;;;;;;4999729;28;19925;-69
2022/08/17 14:11:10;;;;;;;;;;;;;;;;;;5005684;28;19913;-70
2022/08/17 14:13:36;;;;;;;;;;;;;;;;;;5006305;28;19917;-69
2022/08/17 14:16:01;;;;;;;;;;;;;;;;;;4979902;28;20377;-69
2022/08/17 14:18:26;;;;;;;;;;;;;;;;;;5000864;28;19960;-69
2022/08/17 14:20:52;;;;;;;;;;;;;;;;;;5007074;28;19975;-69
2022/08/17 14:23:17;;;;;;;;;;;;;;;;;;5004234;28;20067;-66
2022/08/17 14:25:44;;;;;;;;;;;;;;;;;;5006876;28;19928;-67
2022/08/17 14:28:09;;;;;;;;;;;;;;;;;;5009698;28;19959;-69
2022/08/17 14:30:34;;;;;;;;;;;;;;;;;;5003407;28;20008;-69
2022/08/17 14:33:00;;;;;;;;;;;;;;;;;;5000342;28;19921;-69
2022/08/17 14:35:27;;;;;;;;;;;;;;;;;;5005759;28;19955;-69
2022/08/17 14:37:52;;;;;;;;;;;;;;;;;;5004719;28;20087;-68
2022/08/17 14:40:23;;;;;;;;;;;;;;;;;;5004914;28;20388;-69
2022/08/17 14:42:48;;;;;;;;;;;;;;;;;;5003476;28;20374;-70
2022/08/17 14:45:14;;;;;;;;;;;;;;;;;;5010082;28;19924;-69
2022/08/17 14:47:39;;;;;;;;;;;;;;;;;;5007650;28;19921;-69
2022/08/17 14:50:04;;;;;;;;;;;;;;;;;;5007528;28;19913;-69
2022/08/17 14:52:29;;;;;;;;;;;;;;;;;;5001070;28;19925;-69
2022/08/17 14:54:54;;;;;;;;;;;;;;;;;;4996422;28;19913;-69
2022/08/17 14:57:19;;;;;;;;;;;;;;;;;;5016282;28;20281;-69
2022/08/17 14:59:44;;;;;;;;;;;;;;;;;;4993446;28;19957;-70
2022/08/17 15:02:09;;;;;;;;;;;;;;;;;;5010952;28;19917;-69
2022/08/17 15:04:35;;;;;;;;;;;;;;;;;;5006814;28;19918;-69
2022/08/17 15:07:00;;;;;;;;;;;;;;;;;;5007843;28;19921;-69
2022/08/17 15:09:25;;;;;;;;;;;;;;;;;;5003264;28;19945;-69
2022/08/17 15:11:50;;;;;;;;;;;;;;;;;;4995399;28;19913;-68
2022/08/17 15:14:15;;;;;;;;;;;;;;;;;;5006847;28;20056;-68
2022/08/17 15:16:40;;;;;;;;;;;;;;;;;;5005249;28;20013;-68
2022/08/17 15:19:06;;;;;;;;;;;;;;;;;;5008577;28;19949;-68
2022/08/17 15:21:31;;;;;;;;;;;;;;;;;;5003706;28;20413;-69
2022/08/17 15:23:56;;;;;;;;;;;;;;;;;;4992688;28;20005;-68
2022/08/17 15:26:21;;;;;;;;;;;;;;;;;;4999158;28;19976;-69
2022/08/17 15:28:46;;;;;;;;;;;;;;;;;;4988571;28;19913;-69
2022/08/17 15:31:11;;;;;;;;;;;;;;;;;;5004965;28;19914;-69
2022/08/17 15:33:36;;;;;;;;;;;;;;;;;;4993675;28;19921;-68
2022/08/17 15:36:02;;;;;;;;;;;;;;;;;;5000016;28;20413;-68
2022/08/17 15:38:27;;;;;;;;;;;;;;;;;;5006516;28;19914;-68
2022/08/17 15:40:52;;;;;;;;;;;;;;;;;;5003144;28;19918;-69
2022/08/17 15:43:17;;;;;;;;;;;;;;;;;;5004935;28;19953;-69
2022/08/17 15:45:43;;;;;;;;;;;;;;;;;;4997631;28;20000;-68
2022/08/17 15:48:08;;;;;;;;;;;;;;;;;;4982643;28;19921;-69
2022/08/17 15:50:33;;;;;;;;;;;;;;;;;;4999263;28;19925;-67
2022/08/17 15:52:58;;;;;;;;;;;;;;;;;;4990009;28;20386;-69
2022/08/17 15:55:23;;;;;;;;;;;;;;;;;;4993045;28;20552;-69
2022/08/17 15:57:49;;;;;;;;;;;;;;;;;;4999614;28;20010;-69
2022/08/17 16:00:14;;;;;;;;;;;;;;;;;;5004468;28;20016;-69
2022/08/17 16:02:40;;;;;;;;;;;;;;;;;;4997649;28;19914;-67
2022/08/17 16:05:05;;;;;;;;;;;;;;;;;;4993318;28;19987;-69
2022/08/17 16:07:30;;;;;;;;;;;;;;;;;;4987468;28;20007;-69
2022/08/17 16:09:55;;;;;;;;;;;;;;;;;;4997592;28;19913;-71
2022/08/17 16:12:20;;;;;;;;;;;;;;;;;;5000406;28;19992;-67
2022/08/17 16:14:46;;;;;;;;;;;;;;;;;;4995341;28;19969;-72
2022/08/17 16:17:11;;;;;;;;;;;;;;;;;;4992148;28;20318;-72
2022/08/17 16:19:36;;;;;;;;;;;;;;;;;;5001303;28;19914;-71
2022/08/17 16:22:01;;;;;;;;;;;;;;;;;;4989645;28;20239;-72
2022/08/17 16:24:26;;;;;;;;;;;;;;;;;;4996257;28;19918;-71
2022/08/17 16:26:52;;;;;;;;;;;;;;;;;;4987759;28;19914;-73
2022/08/17 16:29:17;;;;;;;;;;;;;;;;;;5010008;28;19920;-74
2022/08/17 16:31:42;;;;;;;;;;;;;;;;;;4998824;28;19996;-69
2022/08/17 16:34:07;;;;;;;;;;;;;;;;;;4990961;28;19914;-72
2022/08/17 16:36:33;;;;;;;;;;;;;;;;;;4995681;28;19918;-71
2022/08/17 16:38:59;;;;;;;;;;;;;;;;;;4993498;28;19917;-72
2022/08/17 16:41:43;;;;;;;;;;;;;;;;;;5003517;28;20028;-72
2022/08/17 16:44:08;;;;;;;;;;;;;;;;;;5001994;28;19966;-72
2022/08/17 16:46:35;;;;;;;;;;;;;;;;;;4999784;28;19917;-70
2022/08/17 16:49:00;;;;;;;;;;;;;;;;;;5009984;28;19913;-72
2022/08/17 16:51:25;;;;;;;;;;;;;;;;;;4992715;28;19914;-73
2022/08/17 16:53:52;;;;;;;;;;;;;;;;;;4982172;28;19969;-72
2022/08/17 16:56:17;;;;;;;;;;;;;;;;;;4996860;28;19968;-72
2022/08/17 16:58:43;;;;;;;;;;;;;;;;;;4996179;28;19926;-71
2022/08/17 17:01:08;;;;;;;;;;;;;;;;;;4996090;28;19924;-72
2022/08/17 17:03:33;;;;;;;;;;;;;;;;;;4985495;28;19926;-72